Time;durP1;ratioP1;P1;durP2;ratioP2;P2;SDS_P1;SDS_P2;PMS_P1;PMS_P2;Temp;Humidity;BMP_temperature;BMP_pressure;BME280_temperature;BME280_humidity;BME280_pressure;Samples;Min_cycle;Max_cycle;Signal;HPM_P1;HPM_P2
2022/04/02 00:00:58;;;;;;;19.43;17.57;;;;;;;0.47;nan;96911.28;5035434;28;20530;-69
2022/04/02 00:03:25;;;;;;;18.80;16.97;;;;;;;0.43;nan;96910.03;5036560;28;20446;-69
2022/04/02 00:05:52;;;;;;;19.50;17.47;;;;;;;0.42;nan;96918.06;5036577;28;20443;-69
2022/04/02 00:08:18;;;;;;;18.00;16.10;;;;;;;0.50;nan;96915.34;5036238;28;20463;-69
2022/04/02 00:10:45;;;;;;;19.07;17.17;;;;;;;0.48;nan;96905.06;5036478;28;20439;-69
2022/04/02 00:13:11;;;;;;;22.27;18.83;;;;;;;0.36;nan;96903.91;5036461;28;20446;-68
2022/04/02 00:15:38;;;;;;;21.27;19.17;;;;;;;0.40;nan;96909.59;5036837;28;20450;-69
2022/04/02 00:18:04;;;;;;;20.50;18.40;;;;;;;0.41;nan;96903.38;5036174;28;20486;-69
2022/04/02 00:20:30;;;;;;;19.90;17.90;;;;;;;0.47;nan;96902.63;5035989;28;20450;-69
2022/04/02 00:25:41;;;;;;;19.10;17.30;;;;;;;0.39;nan;96914.00;5035945;28;20403;-68
2022/04/02 00:28:07;;;;;;;19.50;17.47;;;;;;;0.42;nan;96902.38;5036043;28;20469;-69
2022/04/02 00:30:33;;;;;;;20.03;18.03;;;;;;;0.43;nan;96898.75;5036079;28;20446;-70
2022/04/02 00:33:00;;;;;;;18.90;17.10;;;;;;;0.47;nan;96913.06;5036022;28;20435;-69
2022/04/02 00:35:26;;;;;;;19.83;17.43;;;;;;;0.58;nan;96897.72;5035976;28;20839;-70
2022/04/02 00:37:53;;;;;;;18.70;16.90;;;;;;;0.54;nan;96906.13;5035552;28;20841;-69
2022/04/02 00:40:19;;;;;;;19.27;17.27;;;;;;;0.53;nan;96901.91;5035816;28;20792;-69
2022/04/02 00:42:45;;;;;;;19.30;17.30;;;;;;;0.48;nan;96905.06;5035745;28;20435;-70
2022/04/02 00:45:12;;;;;;;17.93;16.03;;;;;;;0.61;nan;96905.22;5035842;28;20439;-70
2022/04/02 00:47:38;;;;;;;19.33;17.37;;;;;;;0.61;nan;96905.22;5036247;28;20470;-70
2022/04/02 00:50:05;;;;;;;19.20;17.23;;;;;;;0.62;nan;96906.03;5035724;28;20442;-70
2022/04/02 00:52:32;;;;;;;17.70;15.83;;;;;;;0.56;nan;96910.19;5035765;28;20441;-70
2022/04/02 00:54:58;;;;;;;18.27;16.57;;;;;;;0.58;nan;96908.19;5035672;28;20447;-70
2022/04/02 00:57:25;;;;;;;17.43;15.63;;;;;;;0.52;nan;96905.50;5035181;28;20514;-70
2022/04/02 00:59:51;;;;;;;17.90;16.20;;;;;;;0.46;nan;96908.84;5035229;28;20470;-69
2022/04/02 01:02:19;;;;;;;19.87;17.80;;;;;;;0.50;nan;96908.31;5035194;28;20450;-69
2022/04/02 01:04:46;;;;;;;20.10;18.00;;;;;;;0.61;nan;96907.81;5035217;28;20447;-69
2022/04/02 01:07:13;;;;;;;18.57;16.77;;;;;;;0.58;nan;96907.38;5035048;28;20830;-69
2022/04/02 01:09:40;;;;;;;17.60;15.90;;;;;;;0.59;nan;96909.00;5035373;28;20434;-69
2022/04/02 01:12:07;;;;;;;17.40;15.60;;;;;;;0.59;nan;96899.38;5034975;28;20470;-69
2022/04/02 01:14:33;;;;;;;17.83;16.13;;;;;;;0.51;nan;96906.50;5035351;28;20439;-69
2022/04/02 01:17:01;;;;;;;18.20;16.33;;;;;;;0.54;nan;96911.38;5035066;28;20477;-69
2022/04/02 01:19:28;;;;;;;17.47;15.73;;;;;;;0.55;nan;96913.81;5035140;28;20447;-69
2022/04/02 01:21:55;;;;;;;17.53;15.67;;;;;;;0.53;nan;96910.53;5034869;28;20450;-68
2022/04/02 01:24:21;;;;;;;17.43;14.60;;;;;;;0.55;nan;96911.19;5034802;28;21016;-69
2022/04/02 01:26:48;;;;;;;17.40;15.60;;;;;;;0.57;nan;96914.41;5034929;28;20478;-69
2022/04/02 01:29:14;;;;;;;17.03;15.37;;;;;;;0.52;nan;96915.94;5033554;28;20447;-69
2022/04/02 01:31:45;;;;;;;18.13;16.33;;;;;;;0.49;nan;96918.94;5034952;28;20454;-69
2022/04/02 01:34:11;;;;;;;18.37;15.97;;;;;;;0.54;nan;96927.06;5034620;28;20439;-69
2022/04/02 01:36:37;;;;;;;17.23;15.33;;;;;;;0.64;nan;96924.94;5034742;28;20825;-69
2022/04/02 01:39:04;;;;;;;16.33;14.17;;;;;;;0.65;nan;96923.94;5034768;28;20443;-69
2022/04/02 01:41:30;;;;;;;15.40;13.90;;;;;;;0.56;nan;96925.03;5034422;28;20944;-69
2022/04/02 01:43:57;;;;;;;16.73;14.97;;;;;;;0.55;nan;96926.06;5034696;28;20453;-70
2022/04/02 01:46:23;;;;;;;17.30;15.60;;;;;;;0.59;nan;96929.91;5034238;28;20453;-69
2022/04/02 01:48:50;;;;;;;16.43;14.73;;;;;;;0.60;nan;96921.06;5034367;28;20443;-69
2022/04/02 01:51:16;;;;;;;16.20;14.00;;;;;;;0.64;nan;96924.94;5034295;28;20945;-69
2022/04/02 01:53:42;;;;;;;17.13;15.33;;;;;;;0.56;nan;96925.88;5034571;28;20443;-69
2022/04/02 01:56:10;;;;;;;15.90;14.30;;;;;;;0.54;nan;96921.81;5034400;28;20446;-70
2022/04/02 01:58:36;;;;;;;16.37;14.67;;;;;;;0.51;nan;96919.56;5033999;28;20479;-69
2022/04/02 02:01:04;;;;;;;15.00;12.40;;;;;;;0.60;nan;96921.06;5034395;28;20466;-69
2022/04/02 02:03:30;;;;;;;14.37;12.97;;;;;;;0.59;nan;96929.91;5034056;28;20961;-69
2022/04/02 02:05:57;;;;;;;16.07;13.60;;;;;;;0.59;nan;96924.69;5034030;28;20934;-69
2022/04/02 02:08:24;;;;;;;15.27;13.77;;;;;;;0.51;nan;96932.63;5034209;28;20495;-69
2022/04/02 02:10:51;;;;;;;12.53;11.10;;;;;;;0.50;nan;96937.06;5033966;28;20450;-69
2022/04/02 02:13:17;;;;;;;14.63;13.00;;;;;;;0.52;nan;96936.88;5034190;28;20443;-70
2022/04/02 02:15:44;;;;;;;14.47;12.93;;;;;;;0.55;nan;96933.91;5033774;28;20439;-69
2022/04/02 02:18:10;;;;;;;13.60;12.20;;;;;;;0.55;nan;96941.75;5033630;28;20985;-69
2022/04/02 02:20:36;;;;;;;14.90;13.40;;;;;;;0.50;nan;96944.91;5033822;28;20921;-69
2022/04/02 02:23:03;;;;;;;13.13;11.77;;;;;;;0.57;nan;96947.59;5033335;28;20443;-69
2022/04/02 02:25:29;;;;;;;14.80;11.40;;;;;;;0.56;nan;96949.41;5033941;28;20439;-69
2022/04/02 02:27:56;;;;;;;12.27;10.77;;;;;;;0.52;nan;96950.75;5033869;28;20461;-69
2022/04/02 02:30:22;;;;;;;12.80;11.53;;;;;;;0.50;nan;96951.94;5033611;28;20843;-69
2022/04/02 02:32:49;;;;;;;13.40;12.00;;;;;;;0.46;nan;96958.53;5034583;28;20453;-69
2022/04/02 02:38:04;;;;;;;13.57;11.00;;;;;;;0.56;nan;96962.47;5033537;28;20548;-69
2022/04/02 02:40:30;;;;;;;12.30;11.10;;;;;;;0.52;nan;96960.41;5033410;28;20930;-69
2022/04/02 02:42:57;;;;;;;13.83;12.17;;;;;;;0.49;nan;96956.34;5033706;28;20439;-69
2022/04/02 02:45:23;;;;;;;12.83;11.63;;;;;;;0.51;nan;96961.41;5033277;28;20462;-70
2022/04/02 02:47:49;;;;;;;11.20;10.10;;;;;;;0.59;nan;96958.69;5033582;28;20509;-70
2022/04/02 02:50:16;;;;;;;12.63;10.73;;;;;;;0.53;nan;96964.66;5034141;28;21028;-69
2022/04/02 02:52:42;;;;;;;12.17;10.87;;;;;;;0.42;nan;96967.72;5033692;28;20447;-70
2022/04/02 02:55:10;;;;;;;12.03;10.83;;;;;;;0.46;nan;96961.13;5033551;28;20465;-69
2022/04/02 02:57:43;;;;;;;11.63;10.53;;;;;;;0.43;nan;96959.69;5033150;28;20494;-70
2022/04/02 03:00:11;;;;;;;13.57;10.70;;;;;;;0.47;nan;96966.19;5033206;28;20423;-70
2022/04/02 03:02:38;;;;;;;10.23;9.23;;;;;;;0.49;nan;96964.19;5033501;28;20434;-69
2022/04/02 03:05:10;;;;;;;11.30;9.83;;;;;;;0.47;nan;96974.81;5033388;28;20489;-69
2022/04/02 03:07:48;;;;;;;11.70;10.50;;;;;;;0.40;nan;96969.72;5033322;28;20462;-69
2022/04/02 03:10:33;;;;;;;12.70;10.57;;;;;;;0.46;nan;96976.81;5033486;28;20775;-70
2022/04/02 03:13:00;;;;;;;11.23;10.00;;;;;;;0.44;nan;96976.22;5033968;28;20514;-70
2022/04/02 03:15:27;;;;;;;12.03;9.80;;;;;;;0.45;nan;96976.00;5033068;28;20443;-69
2022/04/02 03:17:54;;;;;;;10.43;9.13;;;;;;;0.47;nan;96986.28;5033189;28;20837;-70
2022/04/02 03:20:22;;;;;;;12.27;10.50;;;;;;;0.41;nan;96990.47;5032921;28;20937;-69
2022/04/02 03:22:51;;;;;;;9.47;8.57;;;;;;;0.45;nan;96985.66;5033068;28;20443;-69
2022/04/02 03:25:21;;;;;;;10.30;9.23;;;;;;;0.49;nan;96987.72;5032781;28;20443;-70
2022/04/02 03:27:48;;;;;;;9.57;8.57;;;;;;;0.46;nan;96995.13;5032782;28;20912;-69
2022/04/02 03:30:19;;;;;;;10.90;8.40;;;;;;;0.35;nan;96988.53;5033215;28;20450;-69
2022/04/02 03:32:46;;;;;;;13.07;9.07;;;;;;;0.28;nan;96986.84;5033318;28;20446;-69
2022/04/02 03:35:14;;;;;;;15.30;9.70;;;;;;;0.25;nan;96985.41;5036297;28;20479;-69
2022/04/02 03:37:42;;;;;;;14.47;8.00;;;;;;;0.27;nan;96995.69;5036853;28;20490;-69
2022/04/02 03:40:20;;;;;;;11.57;8.17;;;;;;;0.19;nan;96996.59;5036662;28;20447;-69
2022/04/02 03:42:47;;;;;;;11.27;7.97;;;;;;;0.22;nan;96998.81;5036950;28;20484;-70
2022/04/02 03:45:16;;;;;;;10.43;7.77;;;;;;;0.17;nan;97003.00;5036673;28;20450;-70
2022/04/02 03:47:43;;;;;;;10.20;7.57;;;;;;;0.07;nan;97005.84;5036707;28;20451;-70
2022/04/02 03:50:10;;;;;;;8.73;7.30;;;;;;;0.16;nan;97004.78;5036297;28;20968;-70
2022/04/02 03:52:36;;;;;;;12.07;8.10;;;;;;;0.19;nan;97005.22;5036691;28;20493;-70
2022/04/02 03:55:04;;;;;;;10.37;8.50;;;;;;;0.06;nan;97002.41;5036713;28;20446;-70
2022/04/02 03:57:30;;;;;;;10.73;8.33;;;;;;;0.04;nan;97008.81;5036454;28;20586;-70
2022/04/02 03:59:57;;;;;;;10.57;7.50;;;;;;;0.08;nan;97008.28;5036369;28;20941;-70
2022/04/02 04:02:23;;;;;;;9.87;7.83;;;;;;;0.08;nan;97010.06;5036319;28;20957;-70
2022/04/02 04:04:50;;;;;;;8.70;7.50;;;;;;;0.12;nan;97010.56;5036182;28;20454;-70
2022/04/02 04:07:16;;;;;;;9.90;6.30;;;;;;;0.14;nan;97015.41;5036441;28;20463;-70
2022/04/02 04:09:42;;;;;;;12.87;7.00;;;;;;;0.15;nan;97021.44;5037279;28;20518;-70
2022/04/02 04:12:10;;;;;;;12.97;7.60;;;;;;;0.10;nan;97023.78;5036453;28;20854;-70
2022/04/02 04:14:36;;;;;;;10.30;7.83;;;;;;;0.03;nan;97022.06;5036042;28;20957;-69
2022/04/02 04:17:03;;;;;;;11.40;7.53;;;;;;;0.07;nan;97018.91;5036245;28;20546;-70
2022/04/02 04:19:29;;;;;;;10.07;7.10;;;;;;;0.14;nan;97022.44;5036227;28;20554;-69
2022/04/02 04:21:56;;;;;;;12.07;7.40;;;;;;;0.17;nan;97025.50;5036288;28;20449;-69
2022/04/02 04:24:22;;;;;;;15.17;7.70;;;;;;;0.15;nan;97024.06;5035840;28;20947;-70
2022/04/02 04:26:49;;;;;;;13.03;7.90;;;;;;;0.22;nan;97032.00;5036138;28;20462;-70
2022/04/02 04:29:15;;;;;;;10.27;8.40;;;;;;;0.10;nan;97029.03;5036145;28;20427;-69
2022/04/02 04:31:42;;;;;;;13.67;10.43;;;;;;;0.17;nan;97038.56;5035764;28;20453;-69
2022/04/02 04:34:08;;;;;;;13.07;10.73;;;;;;;0.17;nan;97030.72;5036072;28;20860;-69
2022/04/02 04:36:35;;;;;;;12.83;11.23;;;;;;;0.20;nan;97037.41;5035601;28;20459;-69
2022/04/02 04:39:01;;;;;;;11.70;10.50;;;;;;;0.15;nan;97037.91;5035658;28;20490;-69
2022/04/02 04:41:27;;;;;;;11.37;9.90;;;;;;;0.21;nan;97036.41;5035727;28;20439;-69
2022/04/02 04:43:54;;;;;;;14.17;11.00;;;;;;;0.11;nan;97038.47;5035705;28;20445;-68
2022/04/02 04:46:21;;;;;;;12.53;11.30;;;;;;;-0.01;nan;97045.94;5034659;28;20446;-68
2022/04/02 04:48:48;;;;;;;13.53;11.57;;;;;;;0.01;nan;97046.56;5035692;28;20436;-69
2022/04/02 04:51:16;;;;;;;12.30;11.10;;;;;;;0.08;nan;97047.47;5035657;28;20450;-69
2022/04/02 04:53:42;;;;;;;11.67;10.40;;;;;;;0.08;nan;97057.09;5035634;28;20501;-69
2022/04/02 04:56:09;;;;;;;14.77;10.90;;;;;;;0.02;nan;97055.22;5035254;28;20571;-69
2022/04/02 04:58:35;;;;;;;12.07;10.93;;;;;;;-0.03;nan;97062.78;5035177;28;20486;-69
2022/04/02 05:01:02;;;;;;;12.33;11.13;;;;;;;-0.07;nan;97064.13;5035514;28;20449;-69
2022/04/02 05:03:29;;;;;;;12.77;11.07;;;;;;;-0.02;nan;97067.00;5035561;28;20450;-69
2022/04/02 05:05:56;;;;;;;13.07;11.77;;;;;;;-0.06;nan;97066.56;5035383;28;20530;-69
2022/04/02 05:08:23;;;;;;;12.80;10.80;;;;;;;-0.01;nan;97063.41;5035016;28;20454;-69
2022/04/02 05:10:50;;;;;;;12.90;10.43;;;;;;;-0.05;nan;97075.19;5035301;28;20466;-69
2022/04/02 05:13:16;;;;;;;12.70;11.40;;;;;;;-0.04;nan;97074.22;5035276;28;20443;-69
2022/04/02 05:15:44;;;;;;;11.97;10.77;;;;;;;0.04;nan;97082.78;5035107;28;20439;-69
2022/04/02 05:18:11;;;;;;;14.60;12.07;;;;;;;-0.09;nan;97077.34;5034779;28;20486;-69
2022/04/02 05:20:39;;;;;;;13.40;12.00;;;;;;;-0.09;nan;97082.56;5035101;28;20454;-69
2022/04/02 05:23:07;;;;;;;15.10;12.30;;;;;;;0.03;nan;97090.78;5035128;28;20469;-69
2022/04/02 05:25:35;;;;;;;13.63;10.93;;;;;;;0.04;nan;97089.81;5035085;28;20442;-68
2022/04/02 05:28:04;;;;;;;11.00;9.90;;;;;;;0.04;nan;97088.00;5034595;28;20463;-69
2022/04/02 05:30:34;;;;;;;11.20;10.00;;;;;;;0.04;nan;97082.78;5034824;28;20536;-68
2022/04/02 05:33:01;;;;;;;10.43;9.17;;;;;;;0.04;nan;97085.41;5034950;28;20525;-69
2022/04/02 05:35:28;;;;;;;11.13;10.13;;;;;;;-0.03;nan;97094.91;5034854;28;20435;-69
2022/04/02 05:37:54;;;;;;;13.37;10.13;;;;;;;-0.03;nan;97097.53;5034493;28;20462;-69
2022/04/02 05:40:20;;;;;;;10.53;9.53;;;;;;;0.13;nan;97098.41;5034606;28;20439;-69
2022/04/02 05:42:47;;;;;;;10.10;9.10;;;;;;;0.09;nan;97103.16;5034587;28;20446;-69
2022/04/02 05:45:14;;;;;;;11.07;9.87;;;;;;;-0.12;nan;97113.47;5034596;28;20546;-69
2022/04/02 05:47:52;;;;;;;10.27;9.33;;;;;;;0.03;nan;97113.50;5034157;28;20471;-69
2022/04/02 05:50:21;;;;;;;9.53;8.53;;;;;;;0.03;nan;97112.53;5034675;28;20431;-69
2022/04/02 05:52:49;;;;;;;12.67;9.87;;;;;;;0.08;nan;97120.63;5034565;28;20493;-69
2022/04/02 05:55:15;;;;;;;10.10;9.10;;;;;;;0.03;nan;97122.97;5034516;28;20767;-69
2022/04/02 05:57:42;;;;;;;9.80;8.90;;;;;;;0.04;nan;97113.31;5032955;28;20474;-69
2022/04/02 06:00:11;;;;;;;11.53;10.40;;;;;;;-0.02;nan;97120.06;5034027;28;20446;-70
2022/04/02 06:02:38;;;;;;;10.17;9.17;;;;;;;0.08;nan;97122.44;5034277;28;20454;-69
2022/04/02 06:05:07;;;;;;;10.63;9.63;;;;;;;0.09;nan;97121.44;5034317;28;20465;-69
2022/04/02 06:07:34;;;;;;;9.97;8.73;;;;;;;0.10;nan;97129.09;5034193;28;20499;-69
2022/04/02 06:10:01;;;;;;;11.43;10.30;;;;;;;0.08;nan;97120.63;5034272;28;20439;-69
2022/04/02 06:12:28;;;;;;;9.80;8.90;;;;;;;0.15;nan;97126.78;5033942;28;20880;-69
2022/04/02 06:14:54;;;;;;;11.07;9.97;;;;;;;0.24;nan;97120.47;5033816;28;20952;-69
2022/04/02 06:17:20;;;;;;;9.47;8.57;;;;;;;0.35;nan;97132.31;5033729;28;20826;-69
2022/04/02 06:19:47;;;;;;;11.87;8.60;;;;;;;0.28;nan;97127.97;5034007;28;20505;-70
2022/04/02 06:22:13;;;;;;;8.77;7.90;;;;;;;0.22;nan;97137.31;5033600;28;20961;-69
2022/04/02 06:24:40;;;;;;;10.70;8.70;;;;;;;0.30;nan;97139.09;5033880;28;20531;-70
2022/04/02 06:27:07;;;;;;;8.13;7.43;;;;;;;0.26;nan;97148.25;5033898;28;20550;-69
2022/04/02 06:29:33;;;;;;;7.73;6.97;;;;;;;0.22;nan;97154.81;5033885;28;20443;-69
2022/04/02 06:31:59;;;;;;;8.83;7.90;;;;;;;0.17;nan;97157.97;5033800;28;20783;-69
2022/04/02 06:34:26;;;;;;;7.37;6.67;;;;;;;0.18;nan;97155.16;5033656;28;20439;-69
2022/04/02 06:36:54;;;;;;;8.17;7.20;;;;;;;0.29;nan;97153.94;5033669;28;20463;-69
2022/04/02 06:39:20;;;;;;;8.13;7.30;;;;;;;0.33;nan;97157.84;5033343;28;20493;-69
2022/04/02 06:41:47;;;;;;;9.03;7.50;;;;;;;0.31;nan;97157.19;5033292;28;20957;-69
2022/04/02 06:44:13;;;;;;;8.20;7.40;;;;;;;0.32;nan;97164.84;5033166;28;20438;-70
2022/04/02 06:46:40;;;;;;;8.53;7.73;;;;;;;0.50;nan;97171.56;5033496;28;20654;-70
2022/04/02 06:49:09;;;;;;;7.57;6.80;;;;;;;0.46;nan;97171.09;5033155;28;20935;-69
2022/04/02 06:51:36;;;;;;;7.37;6.63;;;;;;;0.37;nan;97168.72;5033547;28;20450;-69
2022/04/02 06:54:02;;;;;;;8.17;7.37;;;;;;;0.28;nan;97176.63;5033550;28;20442;-69
2022/04/02 06:56:29;;;;;;;7.60;5.90;;;;;;;0.44;nan;97173.06;5033380;28;20483;-69
2022/04/02 06:58:56;;;;;;;8.43;7.67;;;;;;;0.43;nan;97178.47;5033390;28;20558;-69
2022/04/02 07:01:22;;;;;;;7.23;6.53;;;;;;;0.47;nan;97185.81;5033477;28;20446;-70
2022/04/02 07:03:48;;;;;;;7.70;6.90;;;;;;;0.49;nan;97185.63;5033299;28;20438;-70
2022/04/02 07:06:15;;;;;;;9.10;7.33;;;;;;;0.38;nan;97191.28;5033028;28;20439;-70
2022/04/02 07:08:41;;;;;;;8.00;7.20;;;;;;;0.17;nan;97199.75;5033955;28;20434;-70
2022/04/02 07:11:08;;;;;;;7.27;6.47;;;;;;;0.30;nan;97199.19;5038360;28;20438;-70
2022/04/02 07:13:34;;;;;;;7.33;6.63;;;;;;;0.38;nan;97192.88;5038186;28;20466;-70
2022/04/02 07:16:02;;;;;;;8.20;7.33;;;;;;;0.31;nan;97203.44;5037341;28;20434;-70
2022/04/02 07:18:30;;;;;;;8.50;7.60;;;;;;;0.27;nan;97207.38;5037223;28;20479;-70
2022/04/02 07:20:59;;;;;;;9.37;7.27;;;;;;;0.19;nan;97218.72;5037819;28;20449;-70
2022/04/02 07:23:25;;;;;;;8.33;7.50;;;;;;;0.38;nan;97216.41;5037936;28;20450;-70
2022/04/02 07:25:56;;;;;;;8.87;7.43;;;;;;;0.37;nan;97224.47;5036882;28;20447;-70
2022/04/02 07:28:23;;;;;;;7.93;6.63;;;;;;;0.53;nan;97218.28;5037366;28;20999;-70
2022/04/02 07:30:50;;;;;;;10.03;6.93;;;;;;;0.47;nan;97229.44;5037143;28;20450;-69
2022/04/02 07:33:17;;;;;;;9.73;7.80;;;;;;;0.27;nan;97229.09;5037079;28;20533;-69
2022/04/02 07:35:56;;;;;;;8.50;7.73;;;;;;;0.27;nan;97244.75;5037704;28;20549;-69
2022/04/02 07:38:33;;;;;;;7.13;6.43;;;;;;;0.35;nan;97243.91;5037019;28;20481;-68
2022/04/02 07:41:26;;;;;;;8.50;7.70;;;;;;;0.38;nan;97248.78;5036958;28;20517;-69
2022/04/02 07:44:08;;;;;;;10.93;6.80;;;;;;;0.30;nan;97247.03;5037059;28;20494;-68
2022/04/02 07:46:36;;;;;;;7.83;6.13;;;;;;;0.32;nan;97251.09;5036839;28;20466;-69
2022/04/02 07:49:04;;;;;;;6.27;5.63;;;;;;;0.28;nan;97261.28;5036541;28;20794;-68
2022/04/02 07:51:30;;;;;;;7.57;6.87;;;;;;;0.33;nan;97255.34;5036719;28;20431;-69
2022/04/02 07:54:01;;;;;;;7.37;6.67;;;;;;;0.37;nan;97257.63;5036775;28;20525;-69
2022/04/02 07:56:31;;;;;;;7.77;7.07;;;;;;;0.12;nan;97256.97;5036349;28;20427;-69
2022/04/02 07:59:02;;;;;;;7.00;6.30;;;;;;;0.35;nan;97262.22;5036098;28;20470;-68
2022/04/02 08:01:29;;;;;;;7.73;6.80;;;;;;;0.34;nan;97271.84;5036541;28;20438;-68
2022/04/02 08:03:56;;;;;;;9.30;8.23;;;;;;;0.40;nan;97270.34;5036506;28;20479;-68
2022/04/02 08:06:22;;;;;;;9.10;7.83;;;;;;;0.38;nan;97277.53;5036415;28;20442;-68
2022/04/02 08:08:49;;;;;;;7.77;6.90;;;;;;;0.34;nan;97277.06;5036515;28;20435;-68
2022/04/02 08:11:18;;;;;;;7.17;6.57;;;;;;;0.19;nan;97284.06;5036075;28;20798;-68
2022/04/02 08:13:46;;;;;;;7.53;6.80;;;;;;;0.09;nan;97299.13;5036332;28;20795;-69
2022/04/02 08:16:13;;;;;;;7.83;7.07;;;;;;;0.30;nan;97288.88;5036257;28;20449;-68
2022/04/02 08:18:40;;;;;;;6.57;5.97;;;;;;;0.37;nan;97299.44;5036199;28;20482;-68
2022/04/02 08:21:08;;;;;;;7.63;6.80;;;;;;;0.35;nan;97304.03;5035092;28;20442;-69
2022/04/02 08:23:35;;;;;;;8.33;6.87;;;;;;;0.18;nan;97309.34;5036120;28;20465;-69
2022/04/02 08:26:11;;;;;;;6.90;6.30;;;;;;;0.21;nan;97315.25;5036208;28;20439;-69
2022/04/02 08:29:00;;;;;;;7.77;6.57;;;;;;;0.15;nan;97316.75;5036116;28;20817;-69
2022/04/02 08:31:45;;;;;;;7.23;6.63;;;;;;;0.33;nan;97318.06;5029348;28;20451;-69
2022/04/02 08:34:33;;;;;;;7.33;6.63;;;;;;;0.17;nan;97329.63;5036059;28;20454;-69
2022/04/02 08:37:07;;;;;;;7.10;6.40;;;;;;;0.22;nan;97330.72;5034779;28;20459;-69
2022/04/02 08:39:49;;;;;;;8.60;6.30;;;;;;;0.40;nan;97325.25;5035760;28;20467;-69
2022/04/02 08:42:44;;;;;;;7.83;7.03;;;;;;;0.34;nan;97329.34;5035568;28;20419;-68
2022/04/02 08:45:12;;;;;;;7.53;6.83;;;;;;;0.47;nan;97349.69;5034705;28;20519;-69
2022/04/02 08:47:53;;;;;;;7.07;6.47;;;;;;;0.41;nan;97342.56;5035423;28;20474;-68
2022/04/02 08:50:30;;;;;;;7.93;6.53;;;;;;;0.42;nan;97342.38;5035796;28;20423;-68
2022/04/02 08:53:41;;;;;;;8.20;7.40;;;;;;;0.40;nan;97356.63;5034542;28;20423;-69
2022/04/02 08:56:11;;;;;;;9.10;8.20;;;;;;;0.56;nan;97344.25;5035589;28;20436;-69
2022/04/02 08:59:08;;;;;;;9.27;8.40;;;;;;;0.27;nan;97358.97;5035470;28;20439;-68
2022/04/02 09:01:42;;;;;;;8.50;7.63;;;;;;;0.51;nan;97369.28;5035428;28;20427;-69
2022/04/02 09:04:09;;;;;;;9.87;8.53;;;;;;;0.31;nan;97370.72;5035466;28;20427;-69
2022/04/02 09:07:01;;;;;;;9.67;8.63;;;;;;;0.50;nan;97380.75;5035013;28;20466;-69
2022/04/02 09:09:43;;;;;;;10.87;9.30;;;;;;;0.52;nan;97386.59;5017004;28;20956;-69
2022/04/02 09:12:27;;;;;;;8.67;7.80;;;;;;;0.54;nan;97389.88;5035865;28;20438;-68
2022/04/02 09:15:15;;;;;;;8.70;7.63;;;;;;;0.42;nan;97392.06;5035088;28;20443;-68
2022/04/02 09:17:57;;;;;;;10.47;9.37;;;;;;;0.59;nan;97398.00;5034876;28;20973;-68
2022/04/02 09:20:51;;;;;;;9.77;8.77;;;;;;;0.56;nan;97390.50;5035080;28;20459;-68
2022/04/02 09:23:54;;;;;;;9.40;8.20;;;;;;;0.52;nan;97394.44;5034617;28;20423;-68
2022/04/02 09:26:58;;;;;;;9.00;8.20;;;;;;;0.41;nan;97403.50;5034615;28;20416;-69
2022/04/02 09:29:31;;;;;;;9.87;8.40;;;;;;;0.28;nan;97394.56;5034866;28;20437;-69
2022/04/02 09:32:28;;;;;;;9.13;8.23;;;;;;;0.42;nan;97409.53;5034220;28;20432;-69
2022/04/02 09:35:16;;;;;;;10.37;9.27;;;;;;;0.51;nan;97405.88;5034523;28;20424;-69
2022/04/02 09:38:04;;;;;;;10.33;9.33;;;;;;;0.54;nan;97416.03;5034388;28;20462;-70
2022/04/02 09:40:48;;;;;;;8.43;7.47;;;;;;;0.65;nan;97418.22;5034215;28;20479;-68
2022/04/02 09:43:25;;;;;;;8.63;7.83;;;;;;;0.55;nan;97415.84;5034674;28;20522;-69
2022/04/02 09:46:19;;;;;;;10.70;8.50;;;;;;;0.22;nan;97418.78;5034693;28;20484;-69
2022/04/02 09:49:09;;;;;;;9.30;8.40;;;;;;;0.22;nan;97416.19;5034552;28;20435;-70
2022/04/02 09:51:42;;;;;;;9.87;7.90;;;;;;;0.32;nan;97419.41;5034145;28;20423;-69
2022/04/02 09:54:22;;;;;;;11.10;9.50;;;;;;;0.50;nan;97427.81;5034070;28;20913;-69
2022/04/02 09:56:57;;;;;;;9.60;8.60;;;;;;;0.57;nan;97431.34;5034196;28;20913;-69
2022/04/02 09:59:37;;;;;;;9.60;8.43;;;;;;;0.38;nan;97432.59;5033039;28;20462;-69
2022/04/02 10:02:06;;;;;;;9.07;8.17;;;;;;;0.55;nan;97426.31;5034292;28;20434;-69
2022/04/02 10:04:54;;;;;;;10.67;7.23;;;;;;;0.55;nan;97433.34;5034313;28;20442;-69
2022/04/02 10:07:41;;;;;;;8.70;7.67;;;;;;;0.57;nan;97439.19;5034190;28;20458;-68
2022/04/02 10:10:08;;;;;;;9.27;8.20;;;;;;;0.51;nan;97439.88;5034176;28;20422;-69
2022/04/02 10:12:36;;;;;;;8.40;7.27;;;;;;;0.63;nan;97441.13;5033799;28;20922;-69
2022/04/02 10:15:04;;;;;;;10.10;9.10;;;;;;;0.74;nan;97443.34;5033616;28;20996;-69
2022/04/02 10:17:33;;;;;;;9.13;8.33;;;;;;;0.65;nan;97447.81;5033977;28;20513;-69
2022/04/02 10:20:00;;;;;;;10.07;9.07;;;;;;;0.83;nan;97448.38;5032600;28;20479;-69
2022/04/02 10:22:39;;;;;;;9.17;8.33;;;;;;;0.66;nan;97451.25;5033598;28;20450;-69
2022/04/02 10:25:08;;;;;;;9.33;7.43;;;;;;;0.57;nan;97450.47;5034086;28;20777;-69
2022/04/02 10:27:37;;;;;;;9.43;8.53;;;;;;;0.51;nan;97453.78;5033845;28;20803;-69
2022/04/02 10:30:12;;;;;;;10.03;8.57;;;;;;;0.17;nan;97446.25;5033806;28;20439;-69
2022/04/02 10:32:50;;;;;;;9.73;8.30;;;;;;;0.52;nan;97451.97;5033703;28;20449;-69
2022/04/02 10:35:16;;;;;;;7.93;7.13;;;;;;;0.54;nan;97461.28;5033174;28;20427;-69
2022/04/02 10:38:06;;;;;;;9.17;8.27;;;;;;;0.23;nan;97463.84;5033367;28;20455;-69
2022/04/02 10:40:40;;;;;;;9.10;7.80;;;;;;;0.29;nan;97459.75;5033251;28;20520;-70
2022/04/02 10:43:14;;;;;;;8.40;7.60;;;;;;;0.48;nan;97461.97;5033187;28;20438;-69
2022/04/02 10:45:40;;;;;;;7.90;7.13;;;;;;;0.38;nan;97463.16;5031933;28;20929;-70
2022/04/02 10:48:12;;;;;;;10.27;7.93;;;;;;;0.30;nan;97458.78;5033283;28;20558;-70
2022/04/02 10:50:45;;;;;;;8.63;7.80;;;;;;;0.17;nan;97459.31;5033899;28;20435;-69
2022/04/02 10:53:13;;;;;;;9.23;8.33;;;;;;;0.30;nan;97474.47;5033603;28;20956;-70
2022/04/02 10:55:46;;;;;;;8.33;7.43;;;;;;;0.32;nan;97463.84;5033097;28;20809;-69
2022/04/02 10:58:14;;;;;;;8.00;7.20;;;;;;;0.42;nan;97472.28;5032946;28;20475;-70
2022/04/02 11:00:48;;;;;;;7.67;6.87;;;;;;;0.38;nan;97476.22;5032772;28;20853;-69
2022/04/02 11:03:24;;;;;;;8.20;7.50;;;;;;;0.39;nan;97473.44;5032855;28;20454;-69
2022/04/02 11:05:51;;;;;;;10.03;8.13;;;;;;;0.40;nan;97472.44;5031830;28;20429;-69
2022/04/02 11:08:22;;;;;;;9.40;7.07;;;;;;;0.48;nan;97472.41;5032478;28;20467;-69
2022/04/02 11:10:49;;;;;;;9.63;8.70;;;;;;;0.30;nan;97477.06;5033104;28;20481;-69
2022/04/02 11:13:28;;;;;;;8.60;7.80;;;;;;;0.45;nan;97483.22;5033074;28;20442;-69
2022/04/02 11:15:56;;;;;;;9.50;8.50;;;;;;;0.48;nan;97482.88;5032878;28;20435;-69
2022/04/02 11:18:24;;;;;;;9.63;8.60;;;;;;;0.45;nan;97487.66;5033011;28;20459;-69
2022/04/02 11:20:55;;;;;;;9.93;9.00;;;;;;;0.27;nan;97477.41;5033128;28;20501;-70
2022/04/02 11:23:47;;;;;;;8.97;7.93;;;;;;;0.42;nan;97499.25;5033584;28;20430;-70
2022/04/02 11:26:19;;;;;;;10.03;8.40;;;;;;;0.38;nan;97498.75;5032930;28;20427;-69
2022/04/02 11:28:47;;;;;;;12.33;9.60;;;;;;;0.34;nan;97501.91;5032817;28;20423;-69
2022/04/02 11:31:14;;;;;;;10.00;8.63;;;;;;;0.39;nan;97510.03;5032527;28;20957;-69
2022/04/02 11:33:52;;;;;;;8.80;7.90;;;;;;;0.31;nan;97501.44;5032684;28;20448;-69
2022/04/02 11:36:24;;;;;;;10.20;8.43;;;;;;;0.34;nan;97512.34;5032943;28;20423;-69
2022/04/02 11:38:58;;;;;;;9.77;8.90;;;;;;;0.46;nan;97507.56;5033062;28;20785;-69
2022/04/02 11:41:36;;;;;;;9.73;8.60;;;;;;;0.54;nan;97515.38;5032550;28;20907;-69
2022/04/02 11:44:14;;;;;;;12.07;9.00;;;;;;;0.52;nan;97519.97;5032591;28;20453;-69
2022/04/02 11:47:00;;;;;;;10.50;9.40;;;;;;;0.47;nan;97522.25;5033134;28;20467;-70
2022/04/02 11:49:29;;;;;;;10.13;9.20;;;;;;;0.40;nan;97523.94;5032852;28;20420;-70
2022/04/02 11:52:07;;;;;;;10.27;9.23;;;;;;;0.27;nan;97521.03;5032561;28;20968;-69
2022/04/02 11:54:41;;;;;;;11.07;9.97;;;;;;;0.38;nan;97530.13;5033301;28;20542;-69
2022/04/02 11:57:11;;;;;;;10.80;9.73;;;;;;;0.56;nan;97521.25;5036255;28;20540;-69
2022/04/02 11:59:37;;;;;;;11.13;10.00;;;;;;;0.45;nan;97539.94;5036153;28;20483;-70
2022/04/02 12:02:05;;;;;;;11.03;9.93;;;;;;;0.56;nan;97536.94;5036556;28;20438;-69
2022/04/02 12:04:32;;;;;;;12.03;10.93;;;;;;;0.26;nan;97532.47;5036351;28;20439;-69
2022/04/02 12:07:08;;;;;;;13.63;11.90;;;;;;;0.17;nan;97539.50;5036672;28;20774;-69
2022/04/02 12:09:35;;;;;;;12.93;11.60;;;;;;;0.32;nan;97543.88;5036361;28;20485;-69
2022/04/02 12:12:06;;;;;;;12.87;11.57;;;;;;;0.44;nan;97543.53;5036062;28;20442;-69